sensor_id;sensor_type;location;lat;lon;timestamp;pressure;altitude;pressure_sealevel;temperature;humidity
39954;BME280;25631;51.516;-0.470;2023-06-19T00:00:33;100633.63;;;16.64;45.24
39954;BME280;25631;51.516;-0.470;2023-06-19T00:03:09;100631.92;;;16.68;45.11
39954;BME280;25631;51.516;-0.470;2023-06-19T00:05:46;100633.71;;;16.70;45.19
39954;BME280;25631;51.516;-0.470;2023-06-19T00:08:22;100635.63;;;16.86;45.05
39954;BME280;25631;51.516;-0.470;2023-06-19T00:10:59;100631.40;;;16.86;44.89
39954;BME280;25631;51.516;-0.470;2023-06-19T00:13:36;100630.19;;;16.87;44.85
39954;BME280;25631;51.516;-0.470;2023-06-19T00:16:12;100627.33;;;17.06;44.96
39954;BME280;25631;51.516;-0.470;2023-06-19T00:18:49;100625.28;;;16.75;44.87
39954;BME280;25631;51.516;-0.470;2023-06-19T00:21:26;100628.31;;;16.73;44.93
39954;BME280;25631;51.516;-0.470;2023-06-19T00:24:03;100627.01;;;16.68;44.87
39954;BME280;25631;51.516;-0.470;2023-06-19T00:26:39;100626.23;;;16.59;44.90
39954;BME280;25631;51.516;-0.470;2023-06-19T00:29:16;100622.70;;;16.82;44.88
39954;BME280;25631;51.516;-0.470;2023-06-19T00:31:52;100617.63;;;16.81;44.79
39954;BME280;25631;51.516;-0.470;2023-06-19T00:34:30;100623.19;;;16.62;44.73
39954;BME280;25631;51.516;-0.470;2023-06-19T00:37:06;100627.99;;;16.72;44.59
39954;BME280;25631;51.516;-0.470;2023-06-19T00:39:43;100630.61;;;16.80;44.52
39954;BME280;25631;51.516;-0.470;2023-06-19T00:42:19;100630.81;;;16.76;44.66
39954;BME280;25631;51.516;-0.470;2023-06-19T00:44:56;100630.40;;;16.92;44.60
39954;BME280;25631;51.516;-0.470;2023-06-19T00:47:34;100631.72;;;16.78;44.59
39954;BME280;25631;51.516;-0.470;2023-06-19T00:50:11;100632.29;;;16.78;44.52
39954;BME280;25631;51.516;-0.470;2023-06-19T00:52:48;100631.98;;;17.11;44.38
39954;BME280;25631;51.516;-0.470;2023-06-19T00:55:27;100636.73;;;16.97;44.39
39954;BME280;25631;51.516;-0.470;2023-06-19T00:58:05;100637.86;;;17.02;44.30
39954;BME280;25631;51.516;-0.470;2023-06-19T01:00:41;100641.23;;;16.91;44.24
39954;BME280;25631;51.516;-0.470;2023-06-19T01:03:19;100645.14;;;16.93;44.34
39954;BME280;25631;51.516;-0.470;2023-06-19T01:05:56;100646.32;;;16.99;44.19
39954;BME280;25631;51.516;-0.470;2023-06-19T01:08:45;100649.26;;;16.99;44.16
39954;BME280;25631;51.516;-0.470;2023-06-19T01:11:26;100645.31;;;17.04;44.01
39954;BME280;25631;51.516;-0.470;2023-06-19T01:14:10;100642.84;;;17.18;44.10
39954;BME280;25631;51.516;-0.470;2023-06-19T01:16:50;100640.10;;;17.02;44.16
39954;BME280;25631;51.516;-0.470;2023-06-19T01:19:27;100637.88;;;16.85;44.06
39954;BME280;25631;51.516;-0.470;2023-06-19T01:22:04;100637.86;;;16.77;44.03
39954;BME280;25631;51.516;-0.470;2023-06-19T01:24:41;100636.47;;;17.13;44.03
39954;BME280;25631;51.516;-0.470;2023-06-19T01:27:17;100638.02;;;17.03;43.98
39954;BME280;25631;51.516;-0.470;2023-06-19T01:29:54;100640.79;;;17.05;43.91
39954;BME280;25631;51.516;-0.470;2023-06-19T01:32:33;100640.70;;;16.73;43.90
39954;BME280;25631;51.516;-0.470;2023-06-19T01:35:15;100641.67;;;17.02;43.92
39954;BME280;25631;51.516;-0.470;2023-06-19T01:37:54;100645.72;;;16.75;43.92
39954;BME280;25631;51.516;-0.470;2023-06-19T01:40:32;100646.06;;;16.84;43.93
39954;BME280;25631;51.516;-0.470;2023-06-19T01:43:10;100644.20;;;16.86;43.82
39954;BME280;25631;51.516;-0.470;2023-06-19T01:45:47;100646.19;;;16.71;43.88
39954;BME280;25631;51.516;-0.470;2023-06-19T01:48:24;100651.00;;;16.44;44.08
39954;BME280;25631;51.516;-0.470;2023-06-19T01:51:01;100649.92;;;16.55;44.07
39954;BME280;25631;51.516;-0.470;2023-06-19T01:53:38;100647.82;;;16.61;43.95
39954;BME280;25631;51.516;-0.470;2023-06-19T01:56:15;100649.43;;;16.68;44.00
39954;BME280;25631;51.516;-0.470;2023-06-19T01:58:51;100645.19;;;16.64;43.98
39954;BME280;25631;51.516;-0.470;2023-06-19T02:01:29;100640.12;;;16.29;43.93
39954;BME280;25631;51.516;-0.470;2023-06-19T02:04:11;100640.75;;;16.31;43.97
39954;BME280;25631;51.516;-0.470;2023-06-19T02:06:47;100649.82;;;16.51;44.03
39954;BME280;25631;51.516;-0.470;2023-06-19T02:09:24;100649.44;;;16.17;43.94
39954;BME280;25631;51.516;-0.470;2023-06-19T02:12:01;100650.73;;;16.32;43.94
39954;BME280;25631;51.516;-0.470;2023-06-19T02:14:37;100649.38;;;16.27;43.98
39954;BME280;25631;51.516;-0.470;2023-06-19T02:17:14;100647.65;;;15.82;44.12
39954;BME280;25631;51.516;-0.470;2023-06-19T02:19:50;100652.21;;;15.87;44.06
39954;BME280;25631;51.516;-0.470;2023-06-19T02:22:27;100656.73;;;16.32;44.08
39954;BME280;25631;51.516;-0.470;2023-06-19T02:25:04;100659.31;;;15.83;44.13
39954;BME280;25631;51.516;-0.470;2023-06-19T02:27:41;100660.37;;;15.88;44.24
39954;BME280;25631;51.516;-0.470;2023-06-19T02:30:17;100662.69;;;15.95;44.22
39954;BME280;25631;51.516;-0.470;2023-06-19T02:32:54;100665.75;;;15.88;44.12
39954;BME280;25631;51.516;-0.470;2023-06-19T02:35:32;100662.39;;;16.26;43.93
39954;BME280;25631;51.516;-0.470;2023-06-19T02:38:09;100662.99;;;16.09;43.93
39954;BME280;25631;51.516;-0.470;2023-06-19T02:40:45;100668.31;;;16.04;43.90
39954;BME280;25631;51.516;-0.470;2023-06-19T02:43:22;100673.38;;;15.63;44.02
39954;BME280;25631;51.516;-0.470;2023-06-19T02:45:58;100678.56;;;15.96;43.95
39954;BME280;25631;51.516;-0.470;2023-06-19T02:48:35;100679.47;;;15.97;43.94
39954;BME280;25631;51.516;-0.470;2023-06-19T02:51:12;100682.82;;;16.03;43.83
39954;BME280;25631;51.516;-0.470;2023-06-19T02:53:48;100685.76;;;16.03;43.75
39954;BME280;25631;51.516;-0.470;2023-06-19T02:56:26;100692.09;;;15.95;43.74
39954;BME280;25631;51.516;-0.470;2023-06-19T02:59:03;100695.56;;;15.93;43.79
39954;BME280;25631;51.516;-0.470;2023-06-19T03:01:40;100698.49;;;15.81;43.76
39954;BME280;25631;51.516;-0.470;2023-06-19T03:04:16;100702.22;;;16.05;43.76
39954;BME280;25631;51.516;-0.470;2023-06-19T03:06:53;100703.94;;;16.05;43.68
39954;BME280;25631;51.516;-0.470;2023-06-19T03:09:30;100707.82;;;16.24;43.68
39954;BME280;25631;51.516;-0.470;2023-06-19T03:12:07;100713.45;;;16.06;43.69
39954;BME280;25631;51.516;-0.470;2023-06-19T03:14:44;100718.31;;;15.86;43.71
39954;BME280;25631;51.516;-0.470;2023-06-19T03:17:21;100724.63;;;15.82;43.77
39954;BME280;25631;51.516;-0.470;2023-06-19T03:19:57;100726.76;;;15.83;43.72
39954;BME280;25631;51.516;-0.470;2023-06-19T03:22:34;100732.56;;;15.77;43.67
39954;BME280;25631;51.516;-0.470;2023-06-19T03:25:10;100739.59;;;15.83;43.67
39954;BME280;25631;51.516;-0.470;2023-06-19T03:27:47;100743.66;;;15.68;43.85
39954;BME280;25631;51.516;-0.470;2023-06-19T03:30:23;100741.85;;;15.67;43.83
39954;BME280;25631;51.516;-0.470;2023-06-19T03:33:00;100738.55;;;15.85;43.74
39954;BME280;25631;51.516;-0.470;2023-06-19T03:35:37;100742.63;;;15.86;43.63
39954;BME280;25631;51.516;-0.470;2023-06-19T03:38:13;100746.71;;;15.88;43.52
39954;BME280;25631;51.516;-0.470;2023-06-19T03:40:49;100747.73;;;16.07;43.47
39954;BME280;25631;51.516;-0.470;2023-06-19T03:43:26;100748.20;;;15.79;43.52
39954;BME280;25631;51.516;-0.470;2023-06-19T03:46:03;100746.12;;;15.85;43.51
39954;BME280;25631;51.516;-0.470;2023-06-19T03:48:39;100753.46;;;15.94;43.55
39954;BME280;25631;51.516;-0.470;2023-06-19T03:51:16;100759.46;;;15.91;43.43
39954;BME280;25631;51.516;-0.470;2023-06-19T03:53:52;100765.13;;;16.00;43.42
39954;BME280;25631;51.516;-0.470;2023-06-19T03:56:34;100771.48;;;15.93;43.46
39954;BME280;25631;51.516;-0.470;2023-06-19T03:59:10;100772.85;;;16.00;43.47
39954;BME280;25631;51.516;-0.470;2023-06-19T04:01:47;100778.94;;;15.50;43.75
39954;BME280;25631;51.516;-0.470;2023-06-19T04:04:24;100782.35;;;15.45;43.74
39954;BME280;25631;51.516;-0.470;2023-06-19T04:07:00;100784.02;;;15.56;43.74
39954;BME280;25631;51.516;-0.470;2023-06-19T04:09:37;100787.28;;;15.44;43.76
39954;BME280;25631;51.516;-0.470;2023-06-19T04:12:14;100791.06;;;15.55;43.72
39954;BME280;25631;51.516;-0.470;2023-06-19T04:14:52;100795.03;;;15.33;43.97
39954;BME280;25631;51.516;-0.470;2023-06-19T04:17:28;100797.94;;;15.67;43.96
39954;BME280;25631;51.516;-0.470;2023-06-19T04:20:06;100801.38;;;15.24;44.07
39954;BME280;25631;51.516;-0.470;2023-06-19T04:22:43;100803.68;;;15.25;44.12
39954;BME280;25631;51.516;-0.470;2023-06-19T04:25:19;100799.42;;;15.18;44.18
39954;BME280;25631;51.516;-0.470;2023-06-19T04:27:56;100800.32;;;14.99;44.18
39954;BME280;25631;51.516;-0.470;2023-06-19T04:30:32;100806.81;;;15.09;44.36
39954;BME280;25631;51.516;-0.470;2023-06-19T04:33:09;100802.51;;;15.07;44.41
39954;BME280;25631;51.516;-0.470;2023-06-19T04:35:45;100804.16;;;14.92;44.54
39954;BME280;25631;51.516;-0.470;2023-06-19T04:38:22;100805.03;;;15.29;44.73
39954;BME280;25631;51.516;-0.470;2023-06-19T04:40:58;100806.85;;;14.99;44.87
39954;BME280;25631;51.516;-0.470;2023-06-19T04:43:35;100811.79;;;14.67;45.48
39954;BME280;25631;51.516;-0.470;2023-06-19T04:46:11;100819.97;;;14.50;45.36
39954;BME280;25631;51.516;-0.470;2023-06-19T04:48:48;100830.25;;;14.85;45.63
39954;BME280;25631;51.516;-0.470;2023-06-19T04:51:24;100830.67;;;14.80;45.70
39954;BME280;25631;51.516;-0.470;2023-06-19T04:54:01;100829.37;;;15.03;45.75
39954;BME280;25631;51.516;-0.470;2023-06-19T04:56:38;100830.02;;;15.10;45.81
39954;BME280;25631;51.516;-0.470;2023-06-19T04:59:14;100824.28;;;15.18;46.12
39954;BME280;25631;51.516;-0.470;2023-06-19T05:01:51;100825.27;;;14.53;46.15
39954;BME280;25631;51.516;-0.470;2023-06-19T05:04:27;100823.88;;;15.08;46.15
39954;BME280;25631;51.516;-0.470;2023-06-19T05:07:04;100830.27;;;14.92;46.10
39954;BME280;25631;51.516;-0.470;2023-06-19T05:09:41;100833.31;;;14.73;46.39
39954;BME280;25631;51.516;-0.470;2023-06-19T05:12:19;100830.46;;;15.35;46.38
39954;BME280;25631;51.516;-0.470;2023-06-19T05:14:55;100831.63;;;14.92;46.51
39954;BME280;25631;51.516;-0.470;2023-06-19T05:17:32;100827.39;;;14.93;46.54
39954;BME280;25631;51.516;-0.470;2023-06-19T05:20:10;100825.35;;;15.04;46.36
39954;BME280;25631;51.516;-0.470;2023-06-19T05:22:47;100825.33;;;15.32;46.35
39954;BME280;25631;51.516;-0.470;2023-06-19T05:25:24;100823.43;;;15.16;46.18
39954;BME280;25631;51.516;-0.470;2023-06-19T05:28:01;100824.23;;;15.38;46.21
39954;BME280;25631;51.516;-0.470;2023-06-19T05:30:37;100826.54;;;15.50;46.27
39954;BME280;25631;51.516;-0.470;2023-06-19T05:33:14;100830.52;;;15.56;46.18
39954;BME280;25631;51.516;-0.470;2023-06-19T05:35:50;100830.82;;;15.68;46.05
39954;BME280;25631;51.516;-0.470;2023-06-19T05:38:27;100833.72;;;15.78;46.04
39954;BME280;25631;51.516;-0.470;2023-06-19T05:41:03;100834.31;;;15.76;46.00
39954;BME280;25631;51.516;-0.470;2023-06-19T05:43:40;100837.03;;;15.91;45.71
39954;BME280;25631;51.516;-0.470;2023-06-19T05:46:16;100832.41;;;16.04;45.82
39954;BME280;25631;51.516;-0.470;2023-06-19T05:48:53;100835.06;;;16.05;45.77
39954;BME280;25631;51.516;-0.470;2023-06-19T05:51:29;100840.25;;;15.80;45.63
39954;BME280;25631;51.516;-0.470;2023-06-19T05:54:06;100841.24;;;15.95;45.45
39954;BME280;25631;51.516;-0.470;2023-06-19T05:56:43;100837.73;;;16.37;45.45
39954;BME280;25631;51.516;-0.470;2023-06-19T05:59:19;100842.86;;;16.21;45.30
39954;BME280;25631;51.516;-0.470;2023-06-19T06:01:55;100842.99;;;14.28;45.23
39954;BME280;25631;51.516;-0.470;2023-06-19T06:04:32;100840.42;;;16.13;44.77
39954;BME280;25631;51.516;-0.470;2023-06-19T06:07:08;100840.17;;;16.21;44.74
39954;BME280;25631;51.516;-0.470;2023-06-19T06:09:45;100848.78;;;15.89;44.64
39954;BME280;25631;51.516;-0.470;2023-06-19T06:12:22;100852.23;;;16.27;44.70
39954;BME280;25631;51.516;-0.470;2023-06-19T06:14:58;100850.07;;;16.65;44.67
39954;BME280;25631;51.516;-0.470;2023-06-19T06:17:35;100849.47;;;16.27;44.73
39954;BME280;25631;51.516;-0.470;2023-06-19T06:20:11;100848.78;;;16.36;44.69
39954;BME280;25631;51.516;-0.470;2023-06-19T06:22:48;100858.08;;;16.43;44.55
39954;BME280;25631;51.516;-0.470;2023-06-19T06:25:24;100861.95;;;16.19;44.43
39954;BME280;25631;51.516;-0.470;2023-06-19T06:28:01;100864.22;;;16.56;44.31
39954;BME280;25631;51.516;-0.470;2023-06-19T06:30:37;100865.08;;;16.41;44.49
39954;BME280;25631;51.516;-0.470;2023-06-19T06:33:14;100866.40;;;16.41;44.18
39954;BME280;25631;51.516;-0.470;2023-06-19T06:35:53;100859.36;;;16.92;44.12
39954;BME280;25631;51.516;-0.470;2023-06-19T06:38:30;100858.44;;;16.27;43.88
39954;BME280;25631;51.516;-0.470;2023-06-19T06:41:06;100868.67;;;16.37;43.73
39954;BME280;25631;51.516;-0.470;2023-06-19T06:43:43;100860.80;;;16.23;43.43
39954;BME280;25631;51.516;-0.470;2023-06-19T06:46:20;100867.65;;;16.53;43.70
39954;BME280;25631;51.516;-0.470;2023-06-19T06:48:56;100870.19;;;16.59;43.65
39954;BME280;25631;51.516;-0.470;2023-06-19T06:51:33;100873.65;;;16.24;43.60
39954;BME280;25631;51.516;-0.470;2023-06-19T06:54:09;100868.13;;;16.77;43.55
39954;BME280;25631;51.516;-0.470;2023-06-19T06:56:46;100867.69;;;16.50;43.41
39954;BME280;25631;51.516;-0.470;2023-06-19T06:59:22;100866.60;;;16.62;43.32
39954;BME280;25631;51.516;-0.470;2023-06-19T07:01:58;100865.65;;;16.27;42.77
39954;BME280;25631;51.516;-0.470;2023-06-19T07:04:35;100862.08;;;16.48;42.89
39954;BME280;25631;51.516;-0.470;2023-06-19T07:07:11;100859.34;;;16.67;42.78
39954;BME280;25631;51.516;-0.470;2023-06-19T07:09:48;100857.81;;;16.77;42.86
39954;BME280;25631;51.516;-0.470;2023-06-19T07:12:25;100855.41;;;16.48;42.92
39954;BME280;25631;51.516;-0.470;2023-06-19T07:15:02;100856.10;;;16.85;42.78
39954;BME280;25631;51.516;-0.470;2023-06-19T07:17:39;100856.54;;;16.71;42.77
39954;BME280;25631;51.516;-0.470;2023-06-19T07:20:15;100855.32;;;16.76;42.57
39954;BME280;25631;51.516;-0.470;2023-06-19T07:22:53;100858.41;;;16.98;42.16
39954;BME280;25631;51.516;-0.470;2023-06-19T07:25:30;100863.81;;;16.88;42.25
39954;BME280;25631;51.516;-0.470;2023-06-19T07:28:06;100863.06;;;16.83;42.38
39954;BME280;25631;51.516;-0.470;2023-06-19T07:30:43;100867.34;;;16.83;42.44
39954;BME280;25631;51.516;-0.470;2023-06-19T07:33:19;100869.29;;;16.76;42.59
39954;BME280;25631;51.516;-0.470;2023-06-19T07:35:56;100870.00;;;16.97;42.49
39954;BME280;25631;51.516;-0.470;2023-06-19T07:38:33;100874.89;;;16.82;42.46
39954;BME280;25631;51.516;-0.470;2023-06-19T07:41:10;100874.61;;;16.90;42.27
39954;BME280;25631;51.516;-0.470;2023-06-19T07:43:50;100877.26;;;17.16;42.23
39954;BME280;25631;51.516;-0.470;2023-06-19T07:46:27;100878.80;;;16.77;42.22
39954;BME280;25631;51.516;-0.470;2023-06-19T07:49:03;100878.84;;;17.22;42.20
39954;BME280;25631;51.516;-0.470;2023-06-19T07:51:40;100875.83;;;17.13;42.21
39954;BME280;25631;51.516;-0.470;2023-06-19T07:54:17;100869.83;;;17.27;41.91
39954;BME280;25631;51.516;-0.470;2023-06-19T07:56:53;100868.32;;;17.07;41.76
39954;BME280;25631;51.516;-0.470;2023-06-19T07:59:30;100872.47;;;17.15;41.94
39954;BME280;25631;51.516;-0.470;2023-06-19T08:02:08;100868.83;;;17.29;41.44
39954;BME280;25631;51.516;-0.470;2023-06-19T08:04:45;100865.76;;;17.25;41.53
39954;BME280;25631;51.516;-0.470;2023-06-19T08:07:22;100864.17;;;17.22;41.18
39954;BME280;25631;51.516;-0.470;2023-06-19T08:09:58;100867.60;;;17.60;41.05
39954;BME280;25631;51.516;-0.470;2023-06-19T08:12:35;100872.16;;;17.44;40.94
39954;BME280;25631;51.516;-0.470;2023-06-19T08:15:12;100867.62;;;17.32;41.17
39954;BME280;25631;51.516;-0.470;2023-06-19T08:17:48;100865.82;;;17.54;40.84
39954;BME280;25631;51.516;-0.470;2023-06-19T08:20:25;100876.13;;;17.55;40.60
39954;BME280;25631;51.516;-0.470;2023-06-19T08:23:01;100877.98;;;17.83;40.34
39954;BME280;25631;51.516;-0.470;2023-06-19T08:25:38;100880.06;;;17.68;40.40
39954;BME280;25631;51.516;-0.470;2023-06-19T08:28:14;100878.65;;;17.84;40.40
39954;BME280;25631;51.516;-0.470;2023-06-19T08:30:51;100872.48;;;17.83;40.28
39954;BME280;25631;51.516;-0.470;2023-06-19T08:33:28;100870.21;;;17.96;40.15
39954;BME280;25631;51.516;-0.470;2023-06-19T08:36:04;100867.44;;;18.06;40.17
39954;BME280;25631;51.516;-0.470;2023-06-19T08:38:42;100871.50;;;18.42;39.74
39954;BME280;25631;51.516;-0.470;2023-06-19T08:41:19;100871.47;;;18.07;39.50
39954;BME280;25631;51.516;-0.470;2023-06-19T08:43:56;100870.98;;;18.27;39.26
39954;BME280;25631;51.516;-0.470;2023-06-19T08:46:33;100870.89;;;18.47;38.68
39954;BME280;25631;51.516;-0.470;2023-06-19T08:49:10;100872.33;;;18.43;38.90
39954;BME280;25631;51.516;-0.470;2023-06-19T08:51:47;100872.24;;;18.64;38.30
39954;BME280;25631;51.516;-0.470;2023-06-19T08:54:23;100880.59;;;18.16;38.06
39954;BME280;25631;51.516;-0.470;2023-06-19T08:57:01;100877.94;;;18.59;38.32
39954;BME280;25631;51.516;-0.470;2023-06-19T08:59:38;100879.21;;;18.47;38.28
39954;BME280;25631;51.516;-0.470;2023-06-19T09:02:14;100881.67;;;18.87;38.42
39954;BME280;25631;51.516;-0.470;2023-06-19T09:04:51;100881.01;;;18.98;38.11
39954;BME280;25631;51.516;-0.470;2023-06-19T09:07:28;100886.27;;;19.27;37.77
39954;BME280;25631;51.516;-0.470;2023-06-19T09:10:13;100883.80;;;19.10;37.26
39954;BME280;25631;51.516;-0.470;2023-06-19T09:12:59;100880.53;;;19.12;37.43
39954;BME280;25631;51.516;-0.470;2023-06-19T09:15:37;100881.42;;;19.40;37.13
39954;BME280;25631;51.516;-0.470;2023-06-19T09:18:14;100881.62;;;19.50;36.76
39954;BME280;25631;51.516;-0.470;2023-06-19T09:20:53;100881.31;;;19.34;36.27
39954;BME280;25631;51.516;-0.470;2023-06-19T09:23:30;100884.76;;;19.29;36.34
39954;BME280;25631;51.516;-0.470;2023-06-19T09:26:06;100888.46;;;19.43;36.40
39954;BME280;25631;51.516;-0.470;2023-06-19T09:28:43;100889.89;;;19.34;36.23
39954;BME280;25631;51.516;-0.470;2023-06-19T09:31:20;100891.01;;;19.30;36.65
39954;BME280;25631;51.516;-0.470;2023-06-19T09:33:57;100893.03;;;19.42;36.57
39954;BME280;25631;51.516;-0.470;2023-06-19T09:36:33;100897.05;;;19.53;36.65
39954;BME280;25631;51.516;-0.470;2023-06-19T09:39:11;100899.51;;;19.38;35.99
39954;BME280;25631;51.516;-0.470;2023-06-19T09:41:51;100898.87;;;19.46;35.99
39954;BME280;25631;51.516;-0.470;2023-06-19T09:44:30;100894.90;;;19.67;36.31
39954;BME280;25631;51.516;-0.470;2023-06-19T09:47:13;100889.34;;;19.86;36.37
39954;BME280;25631;51.516;-0.470;2023-06-19T09:49:54;100889.52;;;19.75;36.58
39954;BME280;25631;51.516;-0.470;2023-06-19T09:52:32;100887.06;;;19.91;36.51
39954;BME280;25631;51.516;-0.470;2023-06-19T09:55:11;100889.90;;;19.77;36.00
39954;BME280;25631;51.516;-0.470;2023-06-19T09:57:48;100887.65;;;19.82;35.55
39954;BME280;25631;51.516;-0.470;2023-06-19T10:00:24;100886.47;;;19.56;35.23
39954;BME280;25631;51.516;-0.470;2023-06-19T10:03:01;100884.37;;;19.65;35.54
39954;BME280;25631;51.516;-0.470;2023-06-19T10:05:39;100878.70;;;20.06;35.68
39954;BME280;25631;51.516;-0.470;2023-06-19T10:08:27;100884.37;;;19.83;35.35
39954;BME280;25631;51.516;-0.470;2023-06-19T10:11:03;100878.23;;;20.29;35.33
39954;BME280;25631;51.516;-0.470;2023-06-19T10:13:41;100878.61;;;20.00;35.28
39954;BME280;25631;51.516;-0.470;2023-06-19T10:16:21;100879.69;;;20.29;35.02
39954;BME280;25631;51.516;-0.470;2023-06-19T10:18:58;100883.27;;;20.44;34.72
39954;BME280;25631;51.516;-0.470;2023-06-19T10:21:44;100885.33;;;20.80;34.64
39954;BME280;25631;51.516;-0.470;2023-06-19T10:24:23;100887.27;;;20.96;34.02
39954;BME280;25631;51.516;-0.470;2023-06-19T10:27:02;100886.44;;;20.76;34.03
39954;BME280;25631;51.516;-0.470;2023-06-19T10:29:40;100883.05;;;20.85;33.66
39954;BME280;25631;51.516;-0.470;2023-06-19T10:32:16;100881.37;;;20.84;33.75
39954;BME280;25631;51.516;-0.470;2023-06-19T10:34:53;100885.76;;;20.76;34.04
39954;BME280;25631;51.516;-0.470;2023-06-19T10:37:33;100877.09;;;20.66;33.70
39954;BME280;25631;51.516;-0.470;2023-06-19T10:40:10;100882.70;;;21.05;33.34
39954;BME280;25631;51.516;-0.470;2023-06-19T10:42:47;100868.01;;;20.58;33.61
39954;BME280;25631;51.516;-0.470;2023-06-19T10:45:23;100866.59;;;20.75;33.98
39954;BME280;25631;51.516;-0.470;2023-06-19T10:48:01;100873.67;;;20.77;34.09
39954;BME280;25631;51.516;-0.470;2023-06-19T10:50:42;100869.77;;;20.75;33.69
39954;BME280;25631;51.516;-0.470;2023-06-19T10:53:26;100866.13;;;21.14;33.66
39954;BME280;25631;51.516;-0.470;2023-06-19T10:56:03;100869.50;;;21.17;33.32
39954;BME280;25631;51.516;-0.470;2023-06-19T10:58:40;100865.66;;;21.46;33.23
39954;BME280;25631;51.516;-0.470;2023-06-19T11:01:18;100871.70;;;21.28;33.25
39954;BME280;25631;51.516;-0.470;2023-06-19T11:03:55;100865.11;;;21.36;33.00
39954;BME280;25631;51.516;-0.470;2023-06-19T11:06:32;100867.87;;;21.53;32.89
39954;BME280;25631;51.516;-0.470;2023-06-19T11:09:10;100864.26;;;21.12;32.99
39954;BME280;25631;51.516;-0.470;2023-06-19T11:11:48;100866.63;;;21.46;33.36
39954;BME280;25631;51.516;-0.470;2023-06-19T11:14:29;100872.98;;;21.56;33.49
39954;BME280;25631;51.516;-0.470;2023-06-19T11:17:06;100871.25;;;21.45;33.54
39954;BME280;25631;51.516;-0.470;2023-06-19T11:19:43;100863.06;;;21.55;33.18
39954;BME280;25631;51.516;-0.470;2023-06-19T11:22:19;100861.55;;;21.93;33.07
39954;BME280;25631;51.516;-0.470;2023-06-19T11:25:02;100866.99;;;22.32;33.34
39954;BME280;25631;51.516;-0.470;2023-06-19T11:27:39;100861.24;;;22.09;32.93
39954;BME280;25631;51.516;-0.470;2023-06-19T11:30:15;100862.47;;;22.26;32.91
39954;BME280;25631;51.516;-0.470;2023-06-19T11:32:52;100863.86;;;21.96;32.94
39954;BME280;25631;51.516;-0.470;2023-06-19T11:35:33;100860.33;;;22.30;32.85
39954;BME280;25631;51.516;-0.470;2023-06-19T11:38:16;100864.36;;;22.13;32.66
39954;BME280;25631;51.516;-0.470;2023-06-19T11:40:55;100859.08;;;22.63;32.08
39954;BME280;25631;51.516;-0.470;2023-06-19T11:43:34;100867.21;;;22.62;31.68
39954;BME280;25631;51.516;-0.470;2023-06-19T11:46:11;100864.30;;;22.82;32.01
39954;BME280;25631;51.516;-0.470;2023-06-19T11:48:49;100863.34;;;22.37;31.79
39954;BME280;25631;51.516;-0.470;2023-06-19T11:51:25;100861.09;;;22.41;31.90
39954;BME280;25631;51.516;-0.470;2023-06-19T11:54:03;100865.52;;;22.60;31.53
39954;BME280;25631;51.516;-0.470;2023-06-19T11:56:40;100862.89;;;22.56;31.64
39954;BME280;25631;51.516;-0.470;2023-06-19T11:59:17;100853.90;;;22.39;31.41
39954;BME280;25631;51.516;-0.470;2023-06-19T12:01:53;100848.70;;;22.62;31.41
39954;BME280;25631;51.516;-0.470;2023-06-19T12:04:30;100855.19;;;22.69;31.27
39954;BME280;25631;51.516;-0.470;2023-06-19T12:07:07;100854.69;;;22.62;31.12
39954;BME280;25631;51.516;-0.470;2023-06-19T12:09:43;100857.18;;;22.33;31.12
39954;BME280;25631;51.516;-0.470;2023-06-19T12:12:20;100852.33;;;22.85;31.43
39954;BME280;25631;51.516;-0.470;2023-06-19T12:14:57;100852.78;;;22.44;31.55
39954;BME280;25631;51.516;-0.470;2023-06-19T12:17:34;100855.82;;;22.41;31.09
39954;BME280;25631;51.516;-0.470;2023-06-19T12:20:11;100859.55;;;22.53;31.15
39954;BME280;25631;51.516;-0.470;2023-06-19T12:22:48;100848.70;;;22.90;31.19
39954;BME280;25631;51.516;-0.470;2023-06-19T12:25:24;100849.07;;;23.18;31.05
39954;BME280;25631;51.516;-0.470;2023-06-19T12:28:01;100842.67;;;22.98;30.01
39954;BME280;25631;51.516;-0.470;2023-06-19T12:30:38;100838.66;;;23.00;30.42
39954;BME280;25631;51.516;-0.470;2023-06-19T12:33:15;100837.47;;;23.23;30.04
39954;BME280;25631;51.516;-0.470;2023-06-19T12:35:51;100837.23;;;23.21;29.21
39954;BME280;25631;51.516;-0.470;2023-06-19T12:38:28;100835.72;;;23.25;29.27
39954;BME280;25631;51.516;-0.470;2023-06-19T12:41:05;100842.89;;;23.55;28.85
39954;BME280;25631;51.516;-0.470;2023-06-19T12:43:41;100838.37;;;23.72;28.70
39954;BME280;25631;51.516;-0.470;2023-06-19T12:46:18;100845.13;;;23.32;28.64
39954;BME280;25631;51.516;-0.470;2023-06-19T12:48:54;100836.99;;;23.89;28.68
39954;BME280;25631;51.516;-0.470;2023-06-19T12:51:31;100837.05;;;23.90;29.27
39954;BME280;25631;51.516;-0.470;2023-06-19T12:54:07;100845.52;;;23.84;28.74
39954;BME280;25631;51.516;-0.470;2023-06-19T12:56:44;100840.70;;;24.06;28.96
39954;BME280;25631;51.516;-0.470;2023-06-19T12:59:20;100839.64;;;24.03;28.86
39954;BME280;25631;51.516;-0.470;2023-06-19T13:01:57;100835.94;;;24.17;28.36
39954;BME280;25631;51.516;-0.470;2023-06-19T13:04:33;100835.97;;;24.41;27.68
39954;BME280;25631;51.516;-0.470;2023-06-19T13:07:10;100841.44;;;24.43;27.57
39954;BME280;25631;51.516;-0.470;2023-06-19T13:09:46;100842.39;;;24.42;27.56
39954;BME280;25631;51.516;-0.470;2023-06-19T13:12:23;100838.97;;;24.25;27.54
39954;BME280;25631;51.516;-0.470;2023-06-19T13:14:59;100833.87;;;24.29;28.17
39954;BME280;25631;51.516;-0.470;2023-06-19T13:17:36;100835.99;;;24.43;27.68
39954;BME280;25631;51.516;-0.470;2023-06-19T13:20:12;100833.28;;;24.56;27.05
39954;BME280;25631;51.516;-0.470;2023-06-19T13:22:48;100835.90;;;24.70;27.66
39954;BME280;25631;51.516;-0.470;2023-06-19T13:25:25;100832.24;;;24.97;27.71
39954;BME280;25631;51.516;-0.470;2023-06-19T13:28:01;100828.04;;;24.63;26.82
39954;BME280;25631;51.516;-0.470;2023-06-19T13:30:38;100830.85;;;24.90;26.97